sensor_id;sensor_type;location;lat;lon;timestamp;pressure;altitude;pressure_sealevel;temperature;humidity
11268;BME280;49397;47.474;9.416;2023-06-04T00:02:12;95286.00;;;15.34;68.56
11268;BME280;49397;47.474;9.416;2023-06-04T00:04:37;95291.75;;;15.09;70.63
11268;BME280;49397;47.474;9.416;2023-06-04T00:07:03;95290.19;;;14.96;70.60
11268;BME280;49397;47.474;9.416;2023-06-04T00:09:29;95287.28;;;14.76;70.95
11268;BME280;49397;47.474;9.416;2023-06-04T00:11:54;95290.53;;;14.82;70.54
11268;BME280;49397;47.474;9.416;2023-06-04T00:14:20;95288.41;;;14.75;71.40
11268;BME280;49397;47.474;9.416;2023-06-04T00:16:45;95285.94;;;14.82;70.69
11268;BME280;49397;47.474;9.416;2023-06-04T00:19:11;95288.38;;;14.88;70.47
11268;BME280;49397;47.474;9.416;2023-06-04T00:21:36;95283.00;;;14.88;71.32
11268;BME280;49397;47.474;9.416;2023-06-04T00:24:02;95288.63;;;14.82;71.26
11268;BME280;49397;47.474;9.416;2023-06-04T00:26:27;95281.91;;;14.76;72.26
11268;BME280;49397;47.474;9.416;2023-06-04T00:28:56;95279.88;;;14.73;71.82
11268;BME280;49397;47.474;9.416;2023-06-04T00:31:21;95283.13;;;14.67;72.14
11268;BME280;49397;47.474;9.416;2023-06-04T00:33:50;95286.81;;;14.62;72.48
11268;BME280;49397;47.474;9.416;2023-06-04T00:36:16;95279.31;;;14.56;72.25
11268;BME280;49397;47.474;9.416;2023-06-04T00:38:41;95280.44;;;14.55;72.22
11268;BME280;49397;47.474;9.416;2023-06-04T00:41:07;95288.81;;;14.53;73.05
11268;BME280;49397;47.474;9.416;2023-06-04T00:43:32;95285.25;;;14.61;72.23
11268;BME280;49397;47.474;9.416;2023-06-04T00:45:58;95284.59;;;14.76;71.27
11268;BME280;49397;47.474;9.416;2023-06-04T00:48:25;95289.75;;;14.81;71.86
11268;BME280;49397;47.474;9.416;2023-06-04T00:50:53;95291.09;;;14.88;71.44
11268;BME280;49397;47.474;9.416;2023-06-04T00:53:20;95296.25;;;14.93;71.03
11268;BME280;49397;47.474;9.416;2023-06-04T00:55:46;95291.06;;;15.00;71.26
11268;BME280;49397;47.474;9.416;2023-06-04T00:58:11;95291.97;;;15.04;70.86
11268;BME280;49397;47.474;9.416;2023-06-04T01:00:38;95299.81;;;14.97;69.97
11268;BME280;49397;47.474;9.416;2023-06-04T01:03:07;95294.00;;;14.95;70.45
11268;BME280;49397;47.474;9.416;2023-06-04T01:06:00;95294.44;;;14.84;70.72
11268;BME280;49397;47.474;9.416;2023-06-04T01:08:29;95299.72;;;14.81;71.25
11268;BME280;49397;47.474;9.416;2023-06-04T01:10:58;95297.13;;;14.84;71.02
11268;BME280;49397;47.474;9.416;2023-06-04T01:13:24;95294.78;;;14.83;71.46
11268;BME280;49397;47.474;9.416;2023-06-04T01:15:50;95300.94;;;14.71;71.08
11268;BME280;49397;47.474;9.416;2023-06-04T01:18:19;95297.81;;;14.69;72.03
11268;BME280;49397;47.474;9.416;2023-06-04T01:21:06;95297.13;;;14.72;71.27
11268;BME280;49397;47.474;9.416;2023-06-04T01:23:47;95300.06;;;14.67;72.02
11268;BME280;49397;47.474;9.416;2023-06-04T01:26:14;95302.16;;;14.62;71.96
11268;BME280;49397;47.474;9.416;2023-06-04T01:28:40;95298.22;;;14.35;73.66
11268;BME280;49397;47.474;9.416;2023-06-04T01:31:07;95305.63;;;14.38;73.23
11268;BME280;49397;47.474;9.416;2023-06-04T01:33:34;95304.03;;;14.37;73.52
11268;BME280;49397;47.474;9.416;2023-06-04T01:35:59;95303.53;;;14.23;74.22
11268;BME280;49397;47.474;9.416;2023-06-04T01:38:26;95305.44;;;14.22;74.50
11268;BME280;49397;47.474;9.416;2023-06-04T01:40:52;95296.56;;;14.10;74.74
11268;BME280;49397;47.474;9.416;2023-06-04T01:43:22;95297.88;;;14.04;75.67
11268;BME280;49397;47.474;9.416;2023-06-04T01:45:47;95300.00;;;14.10;75.44
11268;BME280;49397;47.474;9.416;2023-06-04T01:48:13;95310.00;;;14.10;75.50
11268;BME280;49397;47.474;9.416;2023-06-04T01:50:39;95308.38;;;13.97;75.84
11268;BME280;49397;47.474;9.416;2023-06-04T01:53:05;95305.59;;;14.05;76.43
11268;BME280;49397;47.474;9.416;2023-06-04T01:55:31;95309.91;;;14.18;75.80
11268;BME280;49397;47.474;9.416;2023-06-04T01:57:59;95312.38;;;14.23;75.81
11268;BME280;49397;47.474;9.416;2023-06-04T02:00:25;95309.31;;;14.13;76.26
11268;BME280;49397;47.474;9.416;2023-06-04T02:02:51;95317.69;;;13.99;76.54
11268;BME280;49397;47.474;9.416;2023-06-04T02:05:18;95315.97;;;13.95;76.79
11268;BME280;49397;47.474;9.416;2023-06-04T02:07:45;95320.44;;;13.91;77.32
11268;BME280;49397;47.474;9.416;2023-06-04T02:10:12;95326.72;;;13.95;77.59
11268;BME280;49397;47.474;9.416;2023-06-04T02:12:40;95325.50;;;14.04;76.55
11268;BME280;49397;47.474;9.416;2023-06-04T02:15:06;95325.47;;;14.13;76.07
11268;BME280;49397;47.474;9.416;2023-06-04T02:17:32;95326.56;;;14.12;76.69
11268;BME280;49397;47.474;9.416;2023-06-04T02:19:58;95329.28;;;14.24;75.45
11268;BME280;49397;47.474;9.416;2023-06-04T02:22:25;95328.84;;;14.22;76.19
11268;BME280;49397;47.474;9.416;2023-06-04T02:24:51;95331.53;;;14.22;75.82
11268;BME280;49397;47.474;9.416;2023-06-04T02:27:17;95330.16;;;14.16;76.42
11268;BME280;49397;47.474;9.416;2023-06-04T02:29:43;95333.84;;;14.11;76.54
11268;BME280;49397;47.474;9.416;2023-06-04T02:32:09;95331.63;;;14.13;75.94
11268;BME280;49397;47.474;9.416;2023-06-04T02:34:35;95338.84;;;14.34;76.01
11268;BME280;49397;47.474;9.416;2023-06-04T02:37:01;95341.22;;;14.35;75.17
11268;BME280;49397;47.474;9.416;2023-06-04T02:39:27;95333.72;;;14.41;75.28
11268;BME280;49397;47.474;9.416;2023-06-04T02:41:52;95341.66;;;14.37;75.58
11268;BME280;49397;47.474;9.416;2023-06-04T02:44:18;95346.59;;;14.35;75.33
11268;BME280;49397;47.474;9.416;2023-06-04T02:46:44;95350.66;;;14.41;75.75
11268;BME280;49397;47.474;9.416;2023-06-04T02:49:10;95347.06;;;14.49;74.98
11268;BME280;49397;47.474;9.416;2023-06-04T02:51:45;95347.66;;;14.55;74.67
11268;BME280;49397;47.474;9.416;2023-06-04T02:54:10;95344.19;;;14.54;74.31
11268;BME280;49397;47.474;9.416;2023-06-04T02:56:36;95342.34;;;14.34;75.06
11268;BME280;49397;47.474;9.416;2023-06-04T02:59:03;95344.50;;;14.20;76.16
11268;BME280;49397;47.474;9.416;2023-06-04T03:01:28;95343.13;;;14.14;76.40
11268;BME280;49397;47.474;9.416;2023-06-04T03:03:54;95345.06;;;14.13;75.96
11268;BME280;49397;47.474;9.416;2023-06-04T03:06:21;95346.25;;;14.04;76.38
11268;BME280;49397;47.474;9.416;2023-06-04T03:08:51;95349.63;;;14.13;76.58
11268;BME280;49397;47.474;9.416;2023-06-04T03:11:17;95355.50;;;14.27;76.57
11268;BME280;49397;47.474;9.416;2023-06-04T03:13:44;95345.34;;;14.32;76.02
11268;BME280;49397;47.474;9.416;2023-06-04T03:16:10;95353.78;;;14.43;75.06
11268;BME280;49397;47.474;9.416;2023-06-04T03:18:36;95345.84;;;14.47;75.05
11268;BME280;49397;47.474;9.416;2023-06-04T03:21:06;95351.78;;;14.52;75.87
11268;BME280;49397;47.474;9.416;2023-06-04T03:23:33;95353.00;;;14.43;75.64
11268;BME280;49397;47.474;9.416;2023-06-04T03:26:00;95356.34;;;14.40;76.06
11268;BME280;49397;47.474;9.416;2023-06-04T03:28:26;95351.44;;;14.42;75.04
11268;BME280;49397;47.474;9.416;2023-06-04T03:30:52;95358.47;;;14.34;75.65
11268;BME280;49397;47.474;9.416;2023-06-04T03:33:17;95355.31;;;14.32;75.91
11268;BME280;49397;47.474;9.416;2023-06-04T03:35:43;95364.09;;;14.41;74.89
11268;BME280;49397;47.474;9.416;2023-06-04T03:38:08;95368.47;;;14.46;75.23
11268;BME280;49397;47.474;9.416;2023-06-04T03:40:34;95363.69;;;14.51;74.36
11268;BME280;49397;47.474;9.416;2023-06-04T03:42:59;95368.72;;;14.53;75.21
11268;BME280;49397;47.474;9.416;2023-06-04T03:45:26;95377.13;;;14.51;75.35
11268;BME280;49397;47.474;9.416;2023-06-04T03:47:51;95380.00;;;14.46;75.58
11268;BME280;49397;47.474;9.416;2023-06-04T03:50:20;95380.53;;;14.40;75.23
11268;BME280;49397;47.474;9.416;2023-06-04T03:52:47;95384.59;;;14.46;75.80
11268;BME280;49397;47.474;9.416;2023-06-04T03:55:13;95381.09;;;14.33;75.91
11268;BME280;49397;47.474;9.416;2023-06-04T03:57:38;95390.00;;;14.25;76.70
11268;BME280;49397;47.474;9.416;2023-06-04T04:00:05;95383.16;;;14.27;76.34
11268;BME280;49397;47.474;9.416;2023-06-04T04:02:31;95389.66;;;14.26;76.23
11268;BME280;49397;47.474;9.416;2023-06-04T04:04:57;95385.47;;;14.38;75.98
11268;BME280;49397;47.474;9.416;2023-06-04T04:07:23;95385.13;;;14.39;75.54
11268;BME280;49397;47.474;9.416;2023-06-04T04:09:51;95384.06;;;14.52;75.34
11268;BME280;49397;47.474;9.416;2023-06-04T04:12:16;95382.16;;;14.53;74.49
11268;BME280;49397;47.474;9.416;2023-06-04T04:14:42;95387.53;;;14.53;74.14
11268;BME280;49397;47.474;9.416;2023-06-04T04:17:08;95380.38;;;14.57;73.63
11268;BME280;49397;47.474;9.416;2023-06-04T04:19:33;95388.00;;;14.55;74.51
11268;BME280;49397;47.474;9.416;2023-06-04T04:21:59;95385.38;;;14.46;74.21
11268;BME280;49397;47.474;9.416;2023-06-04T04:24:26;95398.75;;;14.55;74.75
11268;BME280;49397;47.474;9.416;2023-06-04T04:26:52;95395.19;;;14.63;74.55
11268;BME280;49397;47.474;9.416;2023-06-04T04:29:22;95395.97;;;14.63;74.09
11268;BME280;49397;47.474;9.416;2023-06-04T04:31:51;95400.69;;;14.66;74.43
11268;BME280;49397;47.474;9.416;2023-06-04T04:34:17;95401.91;;;14.69;74.18
11268;BME280;49397;47.474;9.416;2023-06-04T04:36:45;95399.03;;;14.74;73.76
11268;BME280;49397;47.474;9.416;2023-06-04T04:39:26;95411.03;;;14.76;74.50
11268;BME280;49397;47.474;9.416;2023-06-04T04:41:53;95411.00;;;14.64;74.43
11268;BME280;49397;47.474;9.416;2023-06-04T04:44:19;95407.41;;;14.60;74.41
11268;BME280;49397;47.474;9.416;2023-06-04T04:46:45;95411.56;;;14.70;74.72
11268;BME280;49397;47.474;9.416;2023-06-04T04:49:10;95413.47;;;14.69;73.96
11268;BME280;49397;47.474;9.416;2023-06-04T04:51:36;95409.69;;;14.82;73.29
11268;BME280;49397;47.474;9.416;2023-06-04T04:54:02;95418.22;;;14.97;73.68
11268;BME280;49397;47.474;9.416;2023-06-04T04:56:28;95414.97;;;15.03;73.54
11268;BME280;49397;47.474;9.416;2023-06-04T04:58:54;95414.44;;;15.10;72.23
11268;BME280;49397;47.474;9.416;2023-06-04T05:01:20;95420.59;;;15.22;72.24
11268;BME280;49397;47.474;9.416;2023-06-04T05:03:46;95419.50;;;15.23;72.52
11268;BME280;49397;47.474;9.416;2023-06-04T05:06:11;95424.88;;;14.99;73.38
11268;BME280;49397;47.474;9.416;2023-06-04T05:08:37;95424.75;;;15.08;72.71
11268;BME280;49397;47.474;9.416;2023-06-04T05:11:02;95426.34;;;15.21;73.49
11268;BME280;49397;47.474;9.416;2023-06-04T05:13:28;95424.19;;;15.02;72.56
11268;BME280;49397;47.474;9.416;2023-06-04T05:15:53;95428.78;;;15.14;72.68
11268;BME280;49397;47.474;9.416;2023-06-04T05:18:19;95422.88;;;15.20;72.81
11268;BME280;49397;47.474;9.416;2023-06-04T05:20:54;95435.16;;;14.97;72.61
11268;BME280;49397;47.474;9.416;2023-06-04T05:23:20;95433.84;;;15.15;72.29
11268;BME280;49397;47.474;9.416;2023-06-04T05:25:46;95439.78;;;15.09;72.42
11268;BME280;49397;47.474;9.416;2023-06-04T05:28:14;95442.94;;;15.11;72.50
11268;BME280;49397;47.474;9.416;2023-06-04T05:30:40;95445.06;;;15.05;72.80
11268;BME280;49397;47.474;9.416;2023-06-04T05:33:07;95437.66;;;15.14;72.61
11268;BME280;49397;47.474;9.416;2023-06-04T05:35:37;95446.19;;;15.28;71.54
11268;BME280;49397;47.474;9.416;2023-06-04T05:38:06;95438.25;;;15.44;71.22
11268;BME280;49397;47.474;9.416;2023-06-04T05:40:31;95439.94;;;15.61;71.08
11268;BME280;49397;47.474;9.416;2023-06-04T05:42:57;95447.16;;;15.57;71.52
11268;BME280;49397;47.474;9.416;2023-06-04T05:45:23;95436.66;;;15.92;70.03
11268;BME280;49397;47.474;9.416;2023-06-04T05:47:48;95435.63;;;15.96;70.28
11268;BME280;49397;47.474;9.416;2023-06-04T05:50:14;95434.25;;;16.14;69.64
11268;BME280;49397;47.474;9.416;2023-06-04T05:52:39;95431.00;;;16.21;70.07
11268;BME280;49397;47.474;9.416;2023-06-04T05:55:05;95437.28;;;16.13;69.96
11268;BME280;49397;47.474;9.416;2023-06-04T05:57:32;95435.59;;;16.08;70.83
11268;BME280;49397;47.474;9.416;2023-06-04T05:59:58;95439.16;;;16.24;69.78
11268;BME280;49397;47.474;9.416;2023-06-04T06:02:23;95438.25;;;16.32;69.94
11268;BME280;49397;47.474;9.416;2023-06-04T06:04:49;95436.81;;;16.23;68.95
11268;BME280;49397;47.474;9.416;2023-06-04T06:07:14;95439.38;;;16.31;68.96
11268;BME280;49397;47.474;9.416;2023-06-04T06:09:40;95434.44;;;16.33;69.29
11268;BME280;49397;47.474;9.416;2023-06-04T06:12:05;95440.47;;;16.42;68.43
11268;BME280;49397;47.474;9.416;2023-06-04T06:14:31;95435.34;;;16.53;67.95
11268;BME280;49397;47.474;9.416;2023-06-04T06:16:57;95438.06;;;16.81;66.88
11268;BME280;49397;47.474;9.416;2023-06-04T06:19:22;95442.34;;;16.98;66.54
11268;BME280;49397;47.474;9.416;2023-06-04T06:21:47;95447.09;;;17.01;66.39
11268;BME280;49397;47.474;9.416;2023-06-04T06:24:13;95442.44;;;17.01;67.16
11268;BME280;49397;47.474;9.416;2023-06-04T06:26:38;95439.41;;;17.18;67.47
11268;BME280;49397;47.474;9.416;2023-06-04T06:29:04;95453.97;;;17.29;67.12
11268;BME280;49397;47.474;9.416;2023-06-04T06:31:29;95451.88;;;17.54;66.66
11268;BME280;49397;47.474;9.416;2023-06-04T06:33:55;95446.22;;;17.59;66.12
11268;BME280;49397;47.474;9.416;2023-06-04T06:36:20;95453.91;;;17.57;66.17
11268;BME280;49397;47.474;9.416;2023-06-04T06:38:46;95455.13;;;17.60;66.91
11268;BME280;49397;47.474;9.416;2023-06-04T06:41:12;95452.00;;;17.58;65.89
11268;BME280;49397;47.474;9.416;2023-06-04T06:43:37;95461.91;;;17.69;65.36
11268;BME280;49397;47.474;9.416;2023-06-04T06:46:03;95453.63;;;17.62;66.09
11268;BME280;49397;47.474;9.416;2023-06-04T06:48:28;95458.72;;;17.64;65.57
11268;BME280;49397;47.474;9.416;2023-06-04T06:50:54;95460.59;;;17.16;67.44
11268;BME280;49397;47.474;9.416;2023-06-04T06:53:20;95466.28;;;17.58;66.63
11268;BME280;49397;47.474;9.416;2023-06-04T06:55:46;95460.94;;;17.77;66.28
11268;BME280;49397;47.474;9.416;2023-06-04T06:58:11;95463.28;;;17.94;65.26
11268;BME280;49397;47.474;9.416;2023-06-04T07:00:37;95470.09;;;17.88;65.56
11268;BME280;49397;47.474;9.416;2023-06-04T07:03:02;95469.22;;;18.73;71.14
11268;BME280;49397;47.474;9.416;2023-06-04T07:05:29;95457.25;;;19.58;65.17
11268;BME280;49397;47.474;9.416;2023-06-04T07:07:56;95458.59;;;19.94;62.16
11268;BME280;49397;47.474;9.416;2023-06-04T07:10:22;95449.69;;;20.83;62.84
11268;BME280;49397;47.474;9.416;2023-06-04T07:12:48;95453.91;;;19.94;59.29
11268;BME280;49397;47.474;9.416;2023-06-04T07:15:13;95465.22;;;19.28;60.86
11268;BME280;49397;47.474;9.416;2023-06-04T07:17:39;95459.97;;;19.16;61.41
11268;BME280;49397;47.474;9.416;2023-06-04T07:20:05;95468.84;;;18.94;62.50
11268;BME280;49397;47.474;9.416;2023-06-04T07:22:32;95473.56;;;18.97;60.94
11268;BME280;49397;47.474;9.416;2023-06-04T07:24:58;95463.81;;;18.73;62.32
11268;BME280;49397;47.474;9.416;2023-06-04T07:27:23;95474.28;;;18.75;62.45
11268;BME280;49397;47.474;9.416;2023-06-04T07:29:49;95467.03;;;18.79;62.23
11268;BME280;49397;47.474;9.416;2023-06-04T07:32:14;95467.59;;;18.69;62.73
11268;BME280;49397;47.474;9.416;2023-06-04T07:34:40;95465.78;;;18.57;63.21
11268;BME280;49397;47.474;9.416;2023-06-04T07:37:05;95476.91;;;18.71;63.09
11268;BME280;49397;47.474;9.416;2023-06-04T07:39:31;95479.53;;;19.06;62.40
11268;BME280;49397;47.474;9.416;2023-06-04T07:41:57;95476.59;;;18.95;61.41
11268;BME280;49397;47.474;9.416;2023-06-04T07:44:22;95476.34;;;19.00;61.85
11268;BME280;49397;47.474;9.416;2023-06-04T07:46:48;95465.63;;;19.08;62.19
11268;BME280;49397;47.474;9.416;2023-06-04T07:49:14;95465.94;;;19.25;61.67
11268;BME280;49397;47.474;9.416;2023-06-04T07:51:39;95467.69;;;19.37;61.47
11268;BME280;49397;47.474;9.416;2023-06-04T07:54:05;95459.72;;;19.44;60.58
11268;BME280;49397;47.474;9.416;2023-06-04T07:56:30;95464.19;;;19.56;61.04
11268;BME280;49397;47.474;9.416;2023-06-04T07:58:56;95470.59;;;19.70;61.00
11268;BME280;49397;47.474;9.416;2023-06-04T08:01:22;95462.84;;;19.69;59.06
11268;BME280;49397;47.474;9.416;2023-06-04T08:03:49;95463.50;;;19.62;60.14
11268;BME280;49397;47.474;9.416;2023-06-04T08:06:15;95457.63;;;19.15;60.67
11268;BME280;49397;47.474;9.416;2023-06-04T08:08:43;95461.53;;;18.94;60.68
11268;BME280;49397;47.474;9.416;2023-06-04T08:11:14;95450.34;;;19.19;60.50
11268;BME280;49397;47.474;9.416;2023-06-04T08:13:40;95449.31;;;19.46;60.21
11268;BME280;49397;47.474;9.416;2023-06-04T08:16:06;95455.19;;;19.74;60.59
11268;BME280;49397;47.474;9.416;2023-06-04T08:18:32;95450.69;;;19.85;61.71
11268;BME280;49397;47.474;9.416;2023-06-04T08:20:58;95448.75;;;20.12;60.71
11268;BME280;49397;47.474;9.416;2023-06-04T08:23:23;95451.41;;;20.08;60.50
11268;BME280;49397;47.474;9.416;2023-06-04T08:25:49;95451.81;;;20.37;58.74
11268;BME280;49397;47.474;9.416;2023-06-04T08:28:15;95456.91;;;20.12;60.15
11268;BME280;49397;47.474;9.416;2023-06-04T08:30:44;95459.13;;;20.33;59.31
11268;BME280;49397;47.474;9.416;2023-06-04T08:33:10;95454.13;;;20.65;59.07
11268;BME280;49397;47.474;9.416;2023-06-04T08:35:36;95454.94;;;20.69;57.28
11268;BME280;49397;47.474;9.416;2023-06-04T08:38:01;95457.31;;;20.40;59.62
11268;BME280;49397;47.474;9.416;2023-06-04T08:40:27;95455.47;;;20.81;58.43
11268;BME280;49397;47.474;9.416;2023-06-04T08:42:55;95461.13;;;20.36;56.50
11268;BME280;49397;47.474;9.416;2023-06-04T08:45:23;95453.00;;;20.69;55.78
11268;BME280;49397;47.474;9.416;2023-06-04T08:47:50;95460.50;;;20.79;57.39
11268;BME280;49397;47.474;9.416;2023-06-04T08:50:21;95465.06;;;20.72;57.95
11268;BME280;49397;47.474;9.416;2023-06-04T08:52:52;95459.16;;;20.96;57.64
11268;BME280;49397;47.474;9.416;2023-06-04T08:55:19;95452.56;;;21.34;56.06
11268;BME280;49397;47.474;9.416;2023-06-04T08:57:45;95460.59;;;21.63;55.13
11268;BME280;49397;47.474;9.416;2023-06-04T09:00:11;95455.06;;;21.53;55.36
11268;BME280;49397;47.474;9.416;2023-06-04T09:02:38;95460.94;;;21.15;54.64
11268;BME280;49397;47.474;9.416;2023-06-04T09:05:04;95455.19;;;21.23;55.77
11268;BME280;49397;47.474;9.416;2023-06-04T09:07:35;95462.06;;;21.50;55.21
11268;BME280;49397;47.474;9.416;2023-06-04T09:10:02;95461.84;;;21.29;53.54
11268;BME280;49397;47.474;9.416;2023-06-04T09:12:28;95469.53;;;21.20;54.57
11268;BME280;49397;47.474;9.416;2023-06-04T09:14:54;95465.19;;;21.56;54.30
11268;BME280;49397;47.474;9.416;2023-06-04T09:17:24;95465.09;;;21.45;48.70
11268;BME280;49397;47.474;9.416;2023-06-04T09:19:50;95467.47;;;21.47;49.67
11268;BME280;49397;47.474;9.416;2023-06-04T09:22:16;95466.41;;;21.62;50.49
11268;BME280;49397;47.474;9.416;2023-06-04T09:24:44;95465.16;;;21.96;49.53
11268;BME280;49397;47.474;9.416;2023-06-04T09:27:19;95462.06;;;21.98;50.76
11268;BME280;49397;47.474;9.416;2023-06-04T09:29:56;95459.34;;;21.98;48.10
11268;BME280;49397;47.474;9.416;2023-06-04T09:32:26;95465.41;;;22.35;49.36
11268;BME280;49397;47.474;9.416;2023-06-04T09:34:53;95456.44;;;22.31;48.50
11268;BME280;49397;47.474;9.416;2023-06-04T09:37:19;95451.88;;;22.53;49.23
11268;BME280;49397;47.474;9.416;2023-06-04T09:39:53;95460.06;;;22.60;48.24
11268;BME280;49397;47.474;9.416;2023-06-04T09:42:19;95458.13;;;22.60;49.02
11268;BME280;49397;47.474;9.416;2023-06-04T09:44:45;95450.16;;;23.17;53.65
11268;BME280;49397;47.474;9.416;2023-06-04T09:47:14;95458.44;;;23.52;55.28
11268;BME280;49397;47.474;9.416;2023-06-04T09:49:45;95450.63;;;24.00;52.65
11268;BME280;49397;47.474;9.416;2023-06-04T09:52:11;95446.34;;;24.03;49.21
11268;BME280;49397;47.474;9.416;2023-06-04T09:54:40;95449.06;;;24.03;48.36
11268;BME280;49397;47.474;9.416;2023-06-04T09:57:14;95450.63;;;24.07;47.52
11268;BME280;49397;47.474;9.416;2023-06-04T09:59:48;95444.78;;;24.05;48.28
11268;BME280;49397;47.474;9.416;2023-06-04T10:02:19;95438.16;;;24.17;46.50
11268;BME280;49397;47.474;9.416;2023-06-04T10:04:55;95441.22;;;24.44;48.42
11268;BME280;49397;47.474;9.416;2023-06-04T10:07:25;95438.78;;;24.70;47.00
11268;BME280;49397;47.474;9.416;2023-06-04T10:09:52;95443.19;;;24.36;43.38
11268;BME280;49397;47.474;9.416;2023-06-04T10:12:26;95445.47;;;24.59;46.91
11268;BME280;49397;47.474;9.416;2023-06-04T10:15:10;95449.06;;;24.28;43.68
11268;BME280;49397;47.474;9.416;2023-06-04T10:17:36;95444.38;;;24.32;42.18
11268;BME280;49397;47.474;9.416;2023-06-04T10:20:02;95445.03;;;24.74;41.60
11268;BME280;49397;47.474;9.416;2023-06-04T10:22:31;95446.66;;;24.54;45.82
11268;BME280;49397;47.474;9.416;2023-06-04T10:24:58;95447.84;;;24.57;45.02
11268;BME280;49397;47.474;9.416;2023-06-04T10:27:24;95441.16;;;24.61;42.06
11268;BME280;49397;47.474;9.416;2023-06-04T10:29:50;95442.19;;;24.99;40.74
11268;BME280;49397;47.474;9.416;2023-06-04T10:32:17;95435.56;;;24.97;42.37
11268;BME280;49397;47.474;9.416;2023-06-04T10:34:42;95435.63;;;24.79;40.42
11268;BME280;49397;47.474;9.416;2023-06-04T10:37:21;95430.56;;;24.77;39.63
11268;BME280;49397;47.474;9.416;2023-06-04T10:39:52;95438.28;;;25.00;41.93
11268;BME280;49397;47.474;9.416;2023-06-04T10:42:18;95432.69;;;25.21;38.46
11268;BME280;49397;47.474;9.416;2023-06-04T10:44:46;95429.22;;;25.17;39.58
11268;BME280;49397;47.474;9.416;2023-06-04T10:47:22;95430.59;;;25.43;37.39
11268;BME280;49397;47.474;9.416;2023-06-04T10:49:50;95433.16;;;25.71;36.00
11268;BME280;49397;47.474;9.416;2023-06-04T10:52:16;95429.09;;;25.35;38.06
11268;BME280;49397;47.474;9.416;2023-06-04T10:54:42;95430.28;;;25.31;36.62
11268;BME280;49397;47.474;9.416;2023-06-04T10:57:12;95424.00;;;25.34;38.55
11268;BME280;49397;47.474;9.416;2023-06-04T10:59:37;95424.56;;;25.66;39.45
11268;BME280;49397;47.474;9.416;2023-06-04T11:02:09;95428.69;;;25.88;36.29
11268;BME280;49397;47.474;9.416;2023-06-04T11:04:35;95430.56;;;25.98;35.60
11268;BME280;49397;47.474;9.416;2023-06-04T11:07:06;95425.84;;;26.43;36.57
11268;BME280;49397;47.474;9.416;2023-06-04T11:09:56;95425.84;;;26.02;33.02
11268;BME280;49397;47.474;9.416;2023-06-04T11:12:21;95425.09;;;26.39;36.94
11268;BME280;49397;47.474;9.416;2023-06-04T11:14:58;95426.28;;;26.38;35.05
11268;BME280;49397;47.474;9.416;2023-06-04T11:17:24;95425.63;;;26.27;33.88
11268;BME280;49397;47.474;9.416;2023-06-04T11:19:50;95431.56;;;26.56;36.16
11268;BME280;49397;47.474;9.416;2023-06-04T11:22:20;95431.75;;;26.42;35.74
11268;BME280;49397;47.474;9.416;2023-06-04T11:24:46;95430.75;;;26.59;35.39
11268;BME280;49397;47.474;9.416;2023-06-04T11:27:11;95425.97;;;26.66;34.12
11268;BME280;49397;47.474;9.416;2023-06-04T11:29:37;95428.03;;;26.93;33.23
11268;BME280;49397;47.474;9.416;2023-06-04T11:32:03;95428.19;;;26.75;34.00
11268;BME280;49397;47.474;9.416;2023-06-04T11:34:30;95432.91;;;26.00;33.94
11268;BME280;49397;47.474;9.416;2023-06-04T11:37:10;95429.84;;;26.69;31.02
11268;BME280;49397;47.474;9.416;2023-06-04T11:39:36;95424.13;;;26.22;31.12
11268;BME280;49397;47.474;9.416;2023-06-04T11:42:05;95426.66;;;26.40;34.43
11268;BME280;49397;47.474;9.416;2023-06-04T11:44:31;95427.97;;;26.62;35.52
11268;BME280;49397;47.474;9.416;2023-06-04T11:46:57;95428.41;;;26.20;31.45
11268;BME280;49397;47.474;9.416;2023-06-04T11:49:22;95427.66;;;26.19;36.28
11268;BME280;49397;47.474;9.416;2023-06-04T11:51:50;95434.03;;;26.47;35.33
11268;BME280;49397;47.474;9.416;2023-06-04T11:54:16;95438.91;;;26.66;35.03
11268;BME280;49397;47.474;9.416;2023-06-04T11:56:44;95423.19;;;26.70;33.54
11268;BME280;49397;47.474;9.416;2023-06-04T11:59:11;95427.91;;;26.36;34.66
11268;BME280;49397;47.474;9.416;2023-06-04T12:01:42;95423.66;;;26.27;35.40
11268;BME280;49397;47.474;9.416;2023-06-04T12:06:50;95413.75;;;26.00;36.80
11268;BME280;49397;47.474;9.416;2023-06-04T12:09:21;95412.09;;;26.09;36.29
11268;BME280;49397;47.474;9.416;2023-06-04T12:11:47;95417.03;;;26.59;36.26
11268;BME280;49397;47.474;9.416;2023-06-04T12:14:16;95407.31;;;26.88;34.30
11268;BME280;49397;47.474;9.416;2023-06-04T12:17:15;95412.78;;;27.18;33.08
11268;BME280;49397;47.474;9.416;2023-06-04T12:19:50;95401.75;;;27.49;34.29
11268;BME280;49397;47.474;9.416;2023-06-04T12:22:16;95404.69;;;27.61;33.24
11268;BME280;49397;47.474;9.416;2023-06-04T12:24:50;95410.03;;;27.45;32.90
11268;BME280;49397;47.474;9.416;2023-06-04T12:27:20;95401.25;;;27.80;30.83
11268;BME280;49397;47.474;9.416;2023-06-04T12:29:56;95402.47;;;27.26;31.53
11268;BME280;49397;47.474;9.416;2023-06-04T12:32:22;95406.91;;;27.93;31.39
11268;BME280;49397;47.474;9.416;2023-06-04T12:34:47;95398.00;;;28.32;29.88
11268;BME280;49397;47.474;9.416;2023-06-04T12:37:13;95402.41;;;28.06;30.79
11268;BME280;49397;47.474;9.416;2023-06-04T12:39:39;95408.78;;;27.23;32.56
11268;BME280;49397;47.474;9.416;2023-06-04T12:42:05;95411.69;;;27.66;30.76
11268;BME280;49397;47.474;9.416;2023-06-04T12:44:32;95407.97;;;27.99;30.60
11268;BME280;49397;47.474;9.416;2023-06-04T12:46:57;95402.16;;;28.60;28.52
11268;BME280;49397;47.474;9.416;2023-06-04T12:49:23;95409.84;;;28.29;31.59
11268;BME280;49397;47.474;9.416;2023-06-04T12:51:48;95403.09;;;28.33;30.90
11268;BME280;49397;47.474;9.416;2023-06-04T12:54:14;95405.97;;;28.26;30.02
11268;BME280;49397;47.474;9.416;2023-06-04T12:56:40;95397.50;;;28.37;29.47
11268;BME280;49397;47.474;9.416;2023-06-04T12:59:06;95400.00;;;28.08;30.11
11268;BME280;49397;47.474;9.416;2023-06-04T13:01:32;95393.69;;;28.31;31.18
11268;BME280;49397;47.474;9.416;2023-06-04T13:03:57;95393.78;;;27.81;30.85